sensor_id;sensor_type;location;lat;lon;timestamp;pressure;altitude;pressure_sealevel;temperature;humidity
70841;BME280;58465;51.534;9.934;2023-01-30T00:01:35;100093.91;;;3.06;64.34
70841;BME280;58465;51.534;9.934;2023-01-30T00:04:00;100074.50;;;3.01;64.36
70841;BME280;58465;51.534;9.934;2023-01-30T00:06:26;100060.47;;;3.05;64.11
70841;BME280;58465;51.534;9.934;2023-01-30T00:08:52;100037.66;;;3.13;64.04
70841;BME280;58465;51.534;9.934;2023-01-30T00:11:18;100028.91;;;3.20;63.71
70841;BME280;58465;51.534;9.934;2023-01-30T00:13:44;100032.38;;;3.13;63.59
70841;BME280;58465;51.534;9.934;2023-01-30T00:16:09;100034.16;;;3.14;63.87
70841;BME280;58465;51.534;9.934;2023-01-30T00:18:36;100032.31;;;3.08;63.76
70841;BME280;58465;51.534;9.934;2023-01-30T00:21:04;100025.25;;;3.01;64.14
70841;BME280;58465;51.534;9.934;2023-01-30T00:23:30;100015.53;;;2.95;64.37
70841;BME280;58465;51.534;9.934;2023-01-30T00:25:56;100035.84;;;3.06;64.03
70841;BME280;58465;51.534;9.934;2023-01-30T00:28:22;100054.34;;;3.10;64.00
70841;BME280;58465;51.534;9.934;2023-01-30T00:30:49;100056.97;;;3.10;63.96
70841;BME280;58465;51.534;9.934;2023-01-30T00:33:15;100034.16;;;3.15;63.74
70841;BME280;58465;51.534;9.934;2023-01-30T00:35:44;100025.31;;;3.10;63.81
70841;BME280;58465;51.534;9.934;2023-01-30T00:38:09;100017.44;;;3.15;63.81
70841;BME280;58465;51.534;9.934;2023-01-30T00:40:34;100014.75;;;3.09;63.69
70841;BME280;58465;51.534;9.934;2023-01-30T00:43:00;100014.72;;;3.04;63.77
70841;BME280;58465;51.534;9.934;2023-01-30T00:45:45;100002.44;;;3.09;63.44
70841;BME280;58465;51.534;9.934;2023-01-30T00:48:30;99990.13;;;3.05;63.73
70841;BME280;58465;51.534;9.934;2023-01-30T00:50:55;99965.44;;;3.02;64.00
70841;BME280;58465;51.534;9.934;2023-01-30T00:53:21;99968.88;;;2.87;64.35
70841;BME280;58465;51.534;9.934;2023-01-30T00:55:46;99970.66;;;2.88;64.53
70841;BME280;58465;51.534;9.934;2023-01-30T00:58:12;99976.88;;;3.02;64.46
70841;BME280;58465;51.534;9.934;2023-01-30T01:00:37;99978.66;;;3.02;64.06
70841;BME280;58465;51.534;9.934;2023-01-30T01:03:03;99968.03;;;2.92;64.37
70841;BME280;58465;51.534;9.934;2023-01-30T01:05:29;99979.56;;;3.10;64.13
70841;BME280;58465;51.534;9.934;2023-01-30T01:07:54;99985.75;;;3.12;64.04
70841;BME280;58465;51.534;9.934;2023-01-30T01:10:20;99990.19;;;3.16;63.87
70841;BME280;58465;51.534;9.934;2023-01-30T01:12:48;99983.97;;;3.09;64.02
70841;BME280;58465;51.534;9.934;2023-01-30T01:15:14;99977.75;;;3.01;64.26
70841;BME280;58465;51.534;9.934;2023-01-30T01:17:40;99973.44;;;3.11;64.21
70841;BME280;58465;51.534;9.934;2023-01-30T01:20:07;99981.41;;;3.17;64.05
70841;BME280;58465;51.534;9.934;2023-01-30T01:22:33;99966.38;;;3.10;64.38
70841;BME280;58465;51.534;9.934;2023-01-30T01:24:59;99956.72;;;3.10;64.50
70841;BME280;58465;51.534;9.934;2023-01-30T01:27:25;99940.03;;;3.16;64.29
70841;BME280;58465;51.534;9.934;2023-01-30T01:29:50;99933.91;;;3.17;64.27
70841;BME280;58465;51.534;9.934;2023-01-30T01:32:15;99933.88;;;3.18;64.36
70841;BME280;58465;51.534;9.934;2023-01-30T01:34:40;99933.88;;;3.18;64.42
70841;BME280;58465;51.534;9.934;2023-01-30T01:37:06;99910.13;;;3.20;64.39
70841;BME280;58465;51.534;9.934;2023-01-30T01:39:31;99896.03;;;3.18;64.60
70841;BME280;58465;51.534;9.934;2023-01-30T01:42:16;99903.97;;;3.16;64.80
70841;BME280;58465;51.534;9.934;2023-01-30T01:45:06;99901.38;;;3.24;64.61
70841;BME280;58465;51.534;9.934;2023-01-30T01:50:26;99887.25;;;3.16;64.90
70841;BME280;58465;51.534;9.934;2023-01-30T01:52:54;99884.63;;;3.19;64.92
70841;BME280;58465;51.534;9.934;2023-01-30T01:55:22;99870.53;;;3.18;64.86
70841;BME280;58465;51.534;9.934;2023-01-30T01:57:55;99873.13;;;3.09;65.33
70841;BME280;58465;51.534;9.934;2023-01-30T02:00:24;99859.97;;;3.18;65.14
70841;BME280;58465;51.534;9.934;2023-01-30T02:03:12;99836.22;;;3.06;65.60
70841;BME280;58465;51.534;9.934;2023-01-30T02:05:45;99838.75;;;2.91;66.22
70841;BME280;58465;51.534;9.934;2023-01-30T02:08:21;99837.91;;;2.95;66.25
70841;BME280;58465;51.534;9.934;2023-01-30T02:11:05;99832.69;;;3.07;65.79
70841;BME280;58465;51.534;9.934;2023-01-30T02:13:33;99834.50;;;3.16;65.39
70841;BME280;58465;51.534;9.934;2023-01-30T02:16:00;99839.75;;;3.19;65.61
70841;BME280;58465;51.534;9.934;2023-01-30T02:18:27;99835.34;;;3.18;65.42
70841;BME280;58465;51.534;9.934;2023-01-30T02:21:24;99830.09;;;3.27;65.21
70841;BME280;58465;51.534;9.934;2023-01-30T02:26:52;99814.28;;;3.25;65.38
70841;BME280;58465;51.534;9.934;2023-01-30T02:32:33;99819.56;;;3.30;65.87
70841;BME280;58465;51.534;9.934;2023-01-30T02:35:12;99818.69;;;3.23;66.79
70841;BME280;58465;51.534;9.934;2023-01-30T02:37:52;99813.38;;;3.22;67.06
70841;BME280;58465;51.534;9.934;2023-01-30T02:42:59;99817.81;;;3.26;67.70
70841;BME280;58465;51.534;9.934;2023-01-30T02:48:15;99806.34;;;3.15;68.30
70841;BME280;58465;51.534;9.934;2023-01-30T02:50:51;99803.59;;;2.86;69.40
70841;BME280;58465;51.534;9.934;2023-01-30T02:53:18;99792.19;;;2.99;69.71
70841;BME280;58465;51.534;9.934;2023-01-30T02:55:43;99801.03;;;3.12;69.28
70841;BME280;58465;51.534;9.934;2023-01-30T02:58:09;99794.00;;;3.12;69.38
70841;BME280;58465;51.534;9.934;2023-01-30T03:03:29;99788.72;;;3.11;70.22
70841;BME280;58465;51.534;9.934;2023-01-30T03:06:26;99780.81;;;3.14;70.55
70841;BME280;58465;51.534;9.934;2023-01-30T03:09:19;99776.41;;;3.10;70.87
70841;BME280;58465;51.534;9.934;2023-01-30T03:11:59;99756.19;;;3.13;70.93
70841;BME280;58465;51.534;9.934;2023-01-30T03:14:38;99760.56;;;3.08;71.26
70841;BME280;58465;51.534;9.934;2023-01-30T03:17:09;99749.09;;;2.98;72.08
70841;BME280;58465;51.534;9.934;2023-01-30T03:19:35;99746.50;;;3.05;71.75
70841;BME280;58465;51.534;9.934;2023-01-30T03:22:01;99750.88;;;3.01;72.00
70841;BME280;58465;51.534;9.934;2023-01-30T03:24:26;99740.31;;;2.96;72.12
70841;BME280;58465;51.534;9.934;2023-01-30T03:26:56;99742.97;;;3.03;72.42
70841;BME280;58465;51.534;9.934;2023-01-30T03:29:22;99734.16;;;3.08;72.28
70841;BME280;58465;51.534;9.934;2023-01-30T03:31:48;99745.63;;;3.10;72.67
70841;BME280;58465;51.534;9.934;2023-01-30T03:34:13;99723.66;;;3.16;72.42
70841;BME280;58465;51.534;9.934;2023-01-30T03:36:38;99727.16;;;3.13;72.52
70841;BME280;58465;51.534;9.934;2023-01-30T03:39:04;99720.13;;;3.20;72.94
70841;BME280;58465;51.534;9.934;2023-01-30T03:41:29;99700.78;;;3.21;72.85
70841;BME280;58465;51.534;9.934;2023-01-30T03:43:54;99706.94;;;3.24;72.76
70841;BME280;58465;51.534;9.934;2023-01-30T03:46:20;99707.81;;;3.28;72.89
70841;BME280;58465;51.534;9.934;2023-01-30T03:48:45;99712.22;;;3.27;73.08
70841;BME280;58465;51.534;9.934;2023-01-30T03:51:10;99714.84;;;3.20;73.07
70841;BME280;58465;51.534;9.934;2023-01-30T03:53:35;99697.25;;;3.17;73.18
70841;BME280;58465;51.534;9.934;2023-01-30T03:56:00;99696.34;;;3.08;73.83
70841;BME280;58465;51.534;9.934;2023-01-30T03:58:26;99705.19;;;3.16;73.75
70841;BME280;58465;51.534;9.934;2023-01-30T04:00:51;99705.19;;;3.23;73.71
70841;BME280;58465;51.534;9.934;2023-01-30T04:03:16;99706.06;;;3.21;73.37
70841;BME280;58465;51.534;9.934;2023-01-30T04:05:42;99685.84;;;3.29;73.21
70841;BME280;58465;51.534;9.934;2023-01-30T04:08:08;99670.88;;;3.31;72.77
70841;BME280;58465;51.534;9.934;2023-01-30T04:10:34;99662.97;;;3.29;73.36
70841;BME280;58465;51.534;9.934;2023-01-30T04:12:59;99655.03;;;3.31;73.29
70841;BME280;58465;51.534;9.934;2023-01-30T04:15:24;99647.13;;;3.39;73.45
70841;BME280;58465;51.534;9.934;2023-01-30T04:17:49;99640.97;;;3.40;73.41
70841;BME280;58465;51.534;9.934;2023-01-30T04:20:15;99629.53;;;3.41;73.70
70841;BME280;58465;51.534;9.934;2023-01-30T04:22:40;99632.19;;;3.44;73.58
70841;BME280;58465;51.534;9.934;2023-01-30T04:25:06;99627.75;;;3.38;73.73
70841;BME280;58465;51.534;9.934;2023-01-30T04:27:32;99624.25;;;3.39;73.66
70841;BME280;58465;51.534;9.934;2023-01-30T04:29:57;99630.38;;;3.56;73.84
70841;BME280;58465;51.534;9.934;2023-01-30T04:32:25;99630.41;;;3.64;73.56
70841;BME280;58465;51.534;9.934;2023-01-30T04:34:50;99639.19;;;3.66;73.48
70841;BME280;58465;51.534;9.934;2023-01-30T04:37:15;99623.34;;;3.73;73.42
70841;BME280;58465;51.534;9.934;2023-01-30T04:39:40;99628.59;;;3.80;73.33
70841;BME280;58465;51.534;9.934;2023-01-30T04:42:05;99626.81;;;3.85;73.42
70841;BME280;58465;51.534;9.934;2023-01-30T04:44:31;99619.78;;;3.76;73.62
70841;BME280;58465;51.534;9.934;2023-01-30T04:46:56;99629.47;;;3.79;73.69
70841;BME280;58465;51.534;9.934;2023-01-30T04:49:21;99609.22;;;3.78;73.71
70841;BME280;58465;51.534;9.934;2023-01-30T04:51:46;99603.06;;;3.76;73.35
70841;BME280;58465;51.534;9.934;2023-01-30T04:54:12;99617.19;;;3.64;74.05
70841;BME280;58465;51.534;9.934;2023-01-30T04:56:37;99615.44;;;3.63;74.13
70841;BME280;58465;51.534;9.934;2023-01-30T04:59:02;99623.34;;;3.46;75.12
70841;BME280;58465;51.534;9.934;2023-01-30T05:01:33;99607.50;;;3.57;74.75
70841;BME280;58465;51.534;9.934;2023-01-30T05:03:59;99603.09;;;3.60;74.84
70841;BME280;58465;51.534;9.934;2023-01-30T05:06:24;99598.72;;;3.61;74.65
70841;BME280;58465;51.534;9.934;2023-01-30T05:08:51;99598.72;;;3.59;75.29
70841;BME280;58465;51.534;9.934;2023-01-30T05:11:17;99597.84;;;3.54;75.10
70841;BME280;58465;51.534;9.934;2023-01-30T05:13:43;99598.72;;;3.62;75.36
70841;BME280;58465;51.534;9.934;2023-01-30T05:16:10;99601.34;;;3.59;75.44
70841;BME280;58465;51.534;9.934;2023-01-30T05:18:35;99596.06;;;3.61;75.94
70841;BME280;58465;51.534;9.934;2023-01-30T05:21:10;99594.28;;;3.72;75.58
70841;BME280;58465;51.534;9.934;2023-01-30T05:23:36;99588.97;;;3.77;75.21
70841;BME280;58465;51.534;9.934;2023-01-30T05:26:01;99586.38;;;3.72;75.45
70841;BME280;58465;51.534;9.934;2023-01-30T05:28:27;99592.53;;;3.74;75.55
70841;BME280;58465;51.534;9.934;2023-01-30T05:30:53;99587.22;;;3.77;75.51
70841;BME280;58465;51.534;9.934;2023-01-30T05:33:19;99586.34;;;3.78;75.63
70841;BME280;58465;51.534;9.934;2023-01-30T05:35:48;99582.81;;;3.79;75.56
70841;BME280;58465;51.534;9.934;2023-01-30T05:38:14;99580.19;;;3.79;75.53
70841;BME280;58465;51.534;9.934;2023-01-30T05:40:39;99577.53;;;3.79;75.89
70841;BME280;58465;51.534;9.934;2023-01-30T05:43:04;99572.25;;;3.82;76.17
70841;BME280;58465;51.534;9.934;2023-01-30T05:45:29;99575.78;;;3.77;76.11
70841;BME280;58465;51.534;9.934;2023-01-30T05:47:54;99568.72;;;3.76;76.41
70841;BME280;58465;51.534;9.934;2023-01-30T05:50:20;99565.22;;;3.66;77.12
70841;BME280;58465;51.534;9.934;2023-01-30T05:52:45;99576.66;;;3.82;76.92
70841;BME280;58465;51.534;9.934;2023-01-30T05:55:11;99570.47;;;3.86;76.72
70841;BME280;58465;51.534;9.934;2023-01-30T05:57:36;99564.31;;;3.76;77.09
70841;BME280;58465;51.534;9.934;2023-01-30T06:00:03;99567.84;;;3.78;76.90
70841;BME280;58465;51.534;9.934;2023-01-30T06:02:28;99560.81;;;3.82;77.10
70841;BME280;58465;51.534;9.934;2023-01-30T06:04:55;99562.53;;;3.87;77.36
70841;BME280;58465;51.534;9.934;2023-01-30T06:07:20;99559.00;;;3.90;77.19
70841;BME280;58465;51.534;9.934;2023-01-30T06:09:45;99554.59;;;3.90;77.41
70841;BME280;58465;51.534;9.934;2023-01-30T06:12:10;99555.50;;;3.92;77.53
70841;BME280;58465;51.534;9.934;2023-01-30T06:14:36;99555.47;;;3.95;77.47
70841;BME280;58465;51.534;9.934;2023-01-30T06:17:01;99566.06;;;3.88;77.89
70841;BME280;58465;51.534;9.934;2023-01-30T06:19:26;99567.84;;;3.81;78.03
70841;BME280;58465;51.534;9.934;2023-01-30T06:21:51;99565.19;;;3.87;78.14
70841;BME280;58465;51.534;9.934;2023-01-30T06:24:17;99559.91;;;3.93;77.96
70841;BME280;58465;51.534;9.934;2023-01-30T06:26:42;99558.09;;;3.98;77.95
70841;BME280;58465;51.534;9.934;2023-01-30T06:29:07;99562.50;;;3.99;78.08
70841;BME280;58465;51.534;9.934;2023-01-30T06:31:32;99540.53;;;3.93;78.20
70841;BME280;58465;51.534;9.934;2023-01-30T06:33:58;99542.28;;;3.94;78.35
70841;BME280;58465;51.534;9.934;2023-01-30T06:36:23;99544.88;;;3.98;78.37
70841;BME280;58465;51.534;9.934;2023-01-30T06:38:48;99544.88;;;3.97;78.41
70841;BME280;58465;51.534;9.934;2023-01-30T06:41:13;99542.28;;;3.85;78.76
70841;BME280;58465;51.534;9.934;2023-01-30T06:43:40;99541.41;;;3.92;79.00
70841;BME280;58465;51.534;9.934;2023-01-30T06:46:06;99541.41;;;3.93;78.88
70841;BME280;58465;51.534;9.934;2023-01-30T06:48:31;99542.28;;;3.94;78.97
70841;BME280;58465;51.534;9.934;2023-01-30T06:50:56;99538.72;;;3.98;78.83
70841;BME280;58465;51.534;9.934;2023-01-30T06:53:22;99536.97;;;3.98;78.81
70841;BME280;58465;51.534;9.934;2023-01-30T06:55:49;99532.50;;;4.05;78.75
70841;BME280;58465;51.534;9.934;2023-01-30T06:58:14;99538.69;;;4.07;78.74
70841;BME280;58465;51.534;9.934;2023-01-30T07:00:41;99542.19;;;4.12;78.89
70841;BME280;58465;51.534;9.934;2023-01-30T07:03:15;99536.03;;;4.05;78.67
70841;BME280;58465;51.534;9.934;2023-01-30T07:05:42;99540.47;;;3.99;78.76
70841;BME280;58465;51.534;9.934;2023-01-30T07:08:07;99554.56;;;3.98;78.81
70841;BME280;58465;51.534;9.934;2023-01-30T07:10:33;99554.53;;;4.07;78.94
70841;BME280;58465;51.534;9.934;2023-01-30T07:12:59;99552.78;;;4.10;78.93
70841;BME280;58465;51.534;9.934;2023-01-30T07:15:25;99542.19;;;4.10;79.03
70841;BME280;58465;51.534;9.934;2023-01-30T07:17:50;99551.84;;;4.21;79.10
70841;BME280;58465;51.534;9.934;2023-01-30T07:20:15;99548.28;;;4.28;78.81
70841;BME280;58465;51.534;9.934;2023-01-30T07:22:40;99546.53;;;4.24;78.81
70841;BME280;58465;51.534;9.934;2023-01-30T07:25:06;99545.63;;;4.32;78.82
70841;BME280;58465;51.534;9.934;2023-01-30T07:27:32;99546.56;;;4.15;79.19
70841;BME280;58465;51.534;9.934;2023-01-30T07:29:58;99545.72;;;4.06;79.24
70841;BME280;58465;51.534;9.934;2023-01-30T07:32:23;99547.47;;;4.12;79.71
70841;BME280;58465;51.534;9.934;2023-01-30T07:34:48;99542.16;;;4.15;79.57
70841;BME280;58465;51.534;9.934;2023-01-30T07:37:14;99549.19;;;4.19;79.48
70841;BME280;58465;51.534;9.934;2023-01-30T07:39:39;99544.81;;;4.15;79.58
70841;BME280;58465;51.534;9.934;2023-01-30T07:42:04;99546.59;;;4.10;79.59
70841;BME280;58465;51.534;9.934;2023-01-30T07:44:30;99544.84;;;4.10;79.62
70841;BME280;58465;51.534;9.934;2023-01-30T07:46:55;99540.38;;;4.20;79.55
70841;BME280;58465;51.534;9.934;2023-01-30T07:49:21;99545.63;;;4.31;79.45
70841;BME280;58465;51.534;9.934;2023-01-30T07:51:46;99541.31;;;4.12;79.41
70841;BME280;58465;51.534;9.934;2023-01-30T07:54:11;99549.25;;;4.13;79.45
70841;BME280;58465;51.534;9.934;2023-01-30T07:56:36;99556.22;;;4.28;79.15
70841;BME280;58465;51.534;9.934;2023-01-30T07:59:02;99550.91;;;4.29;79.15
70841;BME280;58465;51.534;9.934;2023-01-30T08:01:30;99551.81;;;4.27;79.23
70841;BME280;58465;51.534;9.934;2023-01-30T08:03:55;99542.94;;;4.37;79.41
70841;BME280;58465;51.534;9.934;2023-01-30T08:06:20;99546.47;;;4.37;79.17
70841;BME280;58465;51.534;9.934;2023-01-30T08:08:45;99555.31;;;4.32;79.33
70841;BME280;58465;51.534;9.934;2023-01-30T08:11:13;99543.00;;;4.25;79.35
70841;BME280;58465;51.534;9.934;2023-01-30T08:13:39;99553.56;;;4.26;79.62
70841;BME280;58465;51.534;9.934;2023-01-30T08:16:06;99546.56;;;4.15;79.45
70841;BME280;58465;51.534;9.934;2023-01-30T08:18:32;99543.03;;;4.20;79.72
70841;BME280;58465;51.534;9.934;2023-01-30T08:21:03;99549.19;;;4.22;79.57
70841;BME280;58465;51.534;9.934;2023-01-30T08:23:29;99544.75;;;4.24;79.65
70841;BME280;58465;51.534;9.934;2023-01-30T08:26:00;99546.50;;;4.25;79.25
70841;BME280;58465;51.534;9.934;2023-01-30T08:28:26;99556.19;;;4.31;79.27
70841;BME280;58465;51.534;9.934;2023-01-30T08:30:52;99557.03;;;4.36;79.43
70841;BME280;58465;51.534;9.934;2023-01-30T08:33:21;99564.09;;;4.37;79.43
70841;BME280;58465;51.534;9.934;2023-01-30T08:35:47;99543.78;;;4.43;79.37
70841;BME280;58465;51.534;9.934;2023-01-30T08:38:12;99538.47;;;4.43;79.48
70841;BME280;58465;51.534;9.934;2023-01-30T08:40:38;99544.63;;;4.52;79.38
70841;BME280;58465;51.534;9.934;2023-01-30T08:43:04;99536.66;;;4.56;79.20
70841;BME280;58465;51.534;9.934;2023-01-30T08:45:29;99530.47;;;4.56;78.95
70841;BME280;58465;51.534;9.934;2023-01-30T08:47:59;99518.13;;;4.59;79.04
70841;BME280;58465;51.534;9.934;2023-01-30T08:50:25;99525.19;;;4.60;78.95
70841;BME280;58465;51.534;9.934;2023-01-30T08:52:50;99524.22;;;4.69;78.90
70841;BME280;58465;51.534;9.934;2023-01-30T08:55:15;99519.81;;;4.68;78.44
70841;BME280;58465;51.534;9.934;2023-01-30T08:57:42;99526.00;;;4.67;79.10
70841;BME280;58465;51.534;9.934;2023-01-30T09:00:07;99527.75;;;4.68;79.05
70841;BME280;58465;51.534;9.934;2023-01-30T09:02:33;99530.41;;;4.68;79.05
70841;BME280;58465;51.534;9.934;2023-01-30T09:04:58;99537.41;;;4.75;79.23
70841;BME280;58465;51.534;9.934;2023-01-30T09:07:24;99526.75;;;4.82;79.32
70841;BME280;58465;51.534;9.934;2023-01-30T09:09:49;99540.78;;;4.94;79.49
70841;BME280;58465;51.534;9.934;2023-01-30T09:12:14;99544.19;;;5.09;79.48
70841;BME280;58465;51.534;9.934;2023-01-30T09:14:39;99535.31;;;5.18;79.15
70841;BME280;58465;51.534;9.934;2023-01-30T09:17:05;99532.66;;;5.16;79.01
70841;BME280;58465;51.534;9.934;2023-01-30T09:19:30;99538.75;;;5.25;78.72
70841;BME280;58465;51.534;9.934;2023-01-30T09:21:55;99538.66;;;5.35;78.60
70841;BME280;58465;51.534;9.934;2023-01-30T09:24:21;99546.44;;;5.49;78.42
70841;BME280;58465;51.534;9.934;2023-01-30T09:26:53;99551.72;;;5.53;77.95
70841;BME280;58465;51.534;9.934;2023-01-30T09:29:21;99542.97;;;5.47;77.96
70841;BME280;58465;51.534;9.934;2023-01-30T09:31:47;99550.06;;;5.43;78.25
70841;BME280;58465;51.534;9.934;2023-01-30T09:34:12;99540.34;;;5.44;78.28
70841;BME280;58465;51.534;9.934;2023-01-30T09:36:37;99541.03;;;5.61;77.77
70841;BME280;58465;51.534;9.934;2023-01-30T09:39:04;99525.91;;;5.74;77.54
70841;BME280;58465;51.534;9.934;2023-01-30T09:42:06;99526.63;;;5.89;76.95
70841;BME280;58465;51.534;9.934;2023-01-30T09:47:13;99526.66;;;5.83;76.34
70841;BME280;58465;51.534;9.934;2023-01-30T09:49:55;99540.66;;;5.97;76.28
70841;BME280;58465;51.534;9.934;2023-01-30T09:55:23;99552.97;;;6.05;75.83
70841;BME280;58465;51.534;9.934;2023-01-30T09:57:50;99553.53;;;6.26;75.77
70841;BME280;58465;51.534;9.934;2023-01-30T10:00:24;99562.22;;;6.39;75.06
70841;BME280;58465;51.534;9.934;2023-01-30T10:05:34;99558.31;;;6.64;74.35
70841;BME280;58465;51.534;9.934;2023-01-30T10:08:13;99558.88;;;6.88;73.79
70841;BME280;58465;51.534;9.934;2023-01-30T10:10:47;99558.56;;;7.06;72.47
70841;BME280;58465;51.534;9.934;2023-01-30T10:16:17;99556.00;;;7.01;72.05
70841;BME280;58465;51.534;9.934;2023-01-30T10:19:08;99548.41;;;6.77;72.23
70841;BME280;58465;51.534;9.934;2023-01-30T10:21:50;99541.22;;;6.84;71.90
70841;BME280;58465;51.534;9.934;2023-01-30T10:27:16;99539.50;;;7.35;69.23
70841;BME280;58465;51.534;9.934;2023-01-30T10:29:47;99540.47;;;7.78;67.27
70841;BME280;58465;51.534;9.934;2023-01-30T10:35:06;99533.94;;;8.38;64.46
70841;BME280;58465;51.534;9.934;2023-01-30T10:43:12;99538.19;;;8.03;63.83
70841;BME280;58465;51.534;9.934;2023-01-30T10:50:58;99540.69;;;7.68;66.40
70841;BME280;58465;51.534;9.934;2023-01-30T10:53:45;99545.00;;;7.72;66.86
70841;BME280;58465;51.534;9.934;2023-01-30T10:56:29;99541.31;;;7.79;66.70
70841;BME280;58465;51.534;9.934;2023-01-30T11:01:39;99527.91;;;7.87;65.33
70841;BME280;58465;51.534;9.934;2023-01-30T11:04:25;99521.19;;;7.67;65.05
70841;BME280;58465;51.534;9.934;2023-01-30T11:06:54;99527.25;;;7.74;65.34
70841;BME280;58465;51.534;9.934;2023-01-30T11:09:20;99528.84;;;7.84;65.07
70841;BME280;58465;51.534;9.934;2023-01-30T11:11:49;99523.09;;;8.05;64.18
70841;BME280;58465;51.534;9.934;2023-01-30T11:14:15;99509.59;;;8.14;62.87
70841;BME280;58465;51.534;9.934;2023-01-30T11:16:46;99503.28;;;8.18;62.89
70841;BME280;58465;51.534;9.934;2023-01-30T11:19:14;99521.19;;;8.10;63.10
70841;BME280;58465;51.534;9.934;2023-01-30T11:21:40;99521.91;;;8.18;62.93
70841;BME280;58465;51.534;9.934;2023-01-30T11:24:14;99537.28;;;8.04;62.88
70841;BME280;58465;51.534;9.934;2023-01-30T11:26:41;99546.56;;;8.27;62.53
70841;BME280;58465;51.534;9.934;2023-01-30T11:29:26;99522.88;;;8.16;63.87
70841;BME280;58465;51.534;9.934;2023-01-30T11:31:53;99516.00;;;8.04;64.63
70841;BME280;58465;51.534;9.934;2023-01-30T11:34:20;99519.00;;;8.32;63.47
70841;BME280;58465;51.534;9.934;2023-01-30T11:36:46;99510.41;;;8.58;62.36
70841;BME280;58465;51.534;9.934;2023-01-30T11:41:41;99491.16;;;8.47;61.84
70841;BME280;58465;51.534;9.934;2023-01-30T11:44:10;99489.09;;;8.60;61.84
70841;BME280;58465;51.534;9.934;2023-01-30T11:46:37;99481.69;;;8.72;60.38
70841;BME280;58465;51.534;9.934;2023-01-30T11:49:11;99470.97;;;8.75;60.38
70841;BME280;58465;51.534;9.934;2023-01-30T11:51:39;99471.16;;;8.68;60.06
70841;BME280;58465;51.534;9.934;2023-01-30T11:54:12;99458.16;;;8.91;59.53
70841;BME280;58465;51.534;9.934;2023-01-30T11:56:44;99471.50;;;9.57;57.40
70841;BME280;58465;51.534;9.934;2023-01-30T11:59:31;99472.78;;;10.91;55.01
70841;BME280;58465;51.534;9.934;2023-01-30T12:04:32;99470.47;;;12.08;52.92
70841;BME280;58465;51.534;9.934;2023-01-30T12:07:18;99483.47;;;11.94;49.89
70841;BME280;58465;51.534;9.934;2023-01-30T12:09:44;99502.91;;;11.49;50.96
70841;BME280;58465;51.534;9.934;2023-01-30T12:12:36;99513.13;;;11.87;49.59
70841;BME280;58465;51.534;9.934;2023-01-30T12:15:27;99488.25;;;12.55;47.79
70841;BME280;58465;51.534;9.934;2023-01-30T12:18:16;99484.06;;;13.15;45.39
70841;BME280;58465;51.534;9.934;2023-01-30T12:20:55;99467.84;;;13.38;45.38
70841;BME280;58465;51.534;9.934;2023-01-30T12:23:41;99468.50;;;13.01;45.81
70841;BME280;58465;51.534;9.934;2023-01-30T12:26:29;99473.59;;;12.19;47.79
70841;BME280;58465;51.534;9.934;2023-01-30T12:29:11;99480.94;;;11.91;49.73
70841;BME280;58465;51.534;9.934;2023-01-30T12:32:10;99469.06;;;11.48;50.42
70841;BME280;58465;51.534;9.934;2023-01-30T12:34:36;99495.22;;;10.58;53.17
70841;BME280;58465;51.534;9.934;2023-01-30T12:37:14;99478.97;;;10.07;55.46
70841;BME280;58465;51.534;9.934;2023-01-30T12:42:29;99467.59;;;9.71;55.05
70841;BME280;58465;51.534;9.934;2023-01-30T12:45:22;99471.59;;;9.85;55.59
70841;BME280;58465;51.534;9.934;2023-01-30T12:47:56;99461.13;;;9.79;55.48
70841;BME280;58465;51.534;9.934;2023-01-30T12:50:35;99478.91;;;9.79;55.30
70841;BME280;58465;51.534;9.934;2023-01-30T12:53:22;99473.69;;;9.74;55.03
70841;BME280;58465;51.534;9.934;2023-01-30T12:58:38;99454.88;;;9.48;55.82
70841;BME280;58465;51.534;9.934;2023-01-30T13:01:18;99469.00;;;9.51;55.82
70841;BME280;58465;51.534;9.934;2023-01-30T13:04:03;99466.50;;;9.45;55.56
70841;BME280;58465;51.534;9.934;2023-01-30T13:06:54;99451.94;;;8.92;56.01
70841;BME280;58465;51.534;9.934;2023-01-30T13:09:35;99457.41;;;8.84;56.48
70841;BME280;58465;51.534;9.934;2023-01-30T13:12:08;99456.97;;;9.03;56.07
70841;BME280;58465;51.534;9.934;2023-01-30T13:15:25;99457.50;;;9.17;55.79
70841;BME280;58465;51.534;9.934;2023-01-30T13:22:55;99454.09;;;8.75;55.87
70841;BME280;58465;51.534;9.934;2023-01-30T13:25:52;99443.38;;;8.79;55.48
70841;BME280;58465;51.534;9.934;2023-01-30T13:28:25;99452.31;;;8.75;56.68
70841;BME280;58465;51.534;9.934;2023-01-30T13:30:52;99455.53;;;8.54;57.08
70841;BME280;58465;51.534;9.934;2023-01-30T13:33:22;99461.00;;;8.46;56.84
70841;BME280;58465;51.534;9.934;2023-01-30T13:36:02;99463.84;;;8.76;57.43
70841;BME280;58465;51.534;9.934;2023-01-30T13:38:30;99468.00;;;8.52;57.99
70841;BME280;58465;51.534;9.934;2023-01-30T13:40:59;99471.75;;;8.43;58.44
70841;BME280;58465;51.534;9.934;2023-01-30T13:43:32;99496.47;;;8.47;58.81
70841;BME280;58465;51.534;9.934;2023-01-30T13:46:02;99513.13;;;8.15;59.52
70841;BME280;58465;51.534;9.934;2023-01-30T13:48:56;99527.41;;;8.09;61.15
70841;BME280;58465;51.534;9.934;2023-01-30T13:51:55;99549.56;;;7.67;63.61
70841;BME280;58465;51.534;9.934;2023-01-30T13:54:24;99566.06;;;7.35;66.29
70841;BME280;58465;51.534;9.934;2023-01-30T14:02:22;99572.09;;;6.26;71.17
70841;BME280;58465;51.534;9.934;2023-01-30T14:04:55;99575.66;;;6.25;71.13
70841;BME280;58465;51.534;9.934;2023-01-30T14:07:38;99582.06;;;6.06;70.31
70841;BME280;58465;51.534;9.934;2023-01-30T14:10:13;99600.63;;;6.06;70.94
70841;BME280;58465;51.534;9.934;2023-01-30T14:17:37;99589.19;;;6.04;72.10
70841;BME280;58465;51.534;9.934;2023-01-30T14:22:53;99589.31;;;5.92;71.70
70841;BME280;58465;51.534;9.934;2023-01-30T14:30:46;99612.25;;;6.66;70.51
70841;BME280;58465;51.534;9.934;2023-01-30T14:35:44;99625.72;;;6.53;70.41
70841;BME280;58465;51.534;9.934;2023-01-30T14:38:16;99624.78;;;6.54;69.90
70841;BME280;58465;51.534;9.934;2023-01-30T14:40:46;99627.41;;;6.58;69.37
70841;BME280;58465;51.534;9.934;2023-01-30T14:45:45;99621.22;;;6.59;68.14
70841;BME280;58465;51.534;9.934;2023-01-30T14:54:40;99652.94;;;6.68;68.28
70841;BME280;58465;51.534;9.934;2023-01-30T14:56:43;99677.47;;;6.84;67.87